Terminal Aerodrome Forecast
Issued by NWS

Home | Current Version | Previous Version | Text Only | Print | Product List | Glossary On
Versions: 1 2 3 4 5 6 7 8 9 10 11 12 13 14
000
FTUS45 KTFX 271153 RRA
TAFHVR
TAF
KHVR 271153Z 2712/2812 20006KT P6SM BKN070 PROB30 2723/2803 TSRA
      BKN040CB
     FM280400 VRB06KT P6SM OVC050=

USA.gov is the U.S. government's official web portal to all federal, state and local government web resources and services.